• Join FlightAware (Why Join?)
  • Login
  • US Flag 
02:19PM EDT


 

Airport Tracker/Info


-or-


 

Live Flight TrackerFlight Track Log ✈ SWA3700 ✈ 21-Oct-2013 ✈ KSJC - KPHX

Flight Track Log - Related Links

Times and Time Zones

All times are in EDT time to prevent confusion due to time zone crossing. See the SWA3700 flight status page for this flight to view local times or setup timezone preferences in your user account.

Time Position Orientation Groundspeed Altitude Reporting Facility
EDT Latitude Longitude Course Direction KTS MPH feet Rate Location/Type
09:49AM 37.3808 -121.9494 141° Southeast 149 171 1,400  Level Oakland Center
09:50AM 37.4289 -121.9817 332° Northwest 226 260 3,900 1,740 Climbing Oakland Center
09:51AM 37.4317 -121.9206 87° East 209 241 5,000 900 Climbing Oakland Center
09:52AM 37.3914 -121.8594 130° Southeast 229 264 5,800 1,800 Climbing Oakland Center
09:53AM 37.3422 -121.8044 138° Southeast 238 274 8,700 2,880 Climbing Oakland Center
09:54AM 37.2803 -121.7342 138° Southeast 294 338 11,700 3,240 Climbing Oakland Center
09:55AM 37.1062 -121.1777 141° Southeast  Level Estimated
09:55AM 37.2100 -121.6542 138° Southeast 334 384 15,300  Level Oakland Center
09:56AM 37.1356 -121.5686 137° Southeast 357 411 18,600 3,120 Climbing Oakland Center
09:57AM 37.0519 -121.4842 141° Southeast 376 433 21,700 2,820 Climbing Oakland Center
09:58AM 36.9725 -121.3914 137° Southeast 388 447 24,400 2,940 Climbing Oakland Center
09:59AM 36.8689 -121.2814 140° Southeast 405 466 27,700 2,880 Climbing Oakland Center
10:00AM 36.7967 -121.2014 138° Southeast 405 466 30,300 1,800 Climbing Oakland Center
10:01AM 36.7175 -121.1033 135° Southeast 403 464 31,400 1,200 Climbing Oakland Center
10:02AM 36.6383 -120.9897 131° Southeast 430 495 32,800 1,860 Climbing Oakland Center
10:03AM 36.5419 -120.8522 131° Southeast 438 504 35,200 1,980 Climbing Oakland Center
10:04AM 36.4625 -120.7417 132° Southeast 433 498 36,900 840 Climbing Oakland Center
10:05AM 36.3831 -120.6317 132° Southeast 428 493 37,000  Climbing Oakland Center
10:06AM 36.3036 -120.5244 133° Southeast 423 487 37,000  Level Oakland Center
10:07AM 36.2258 -120.4133 131° Southeast 425 489 37,000  Level Oakland Center
10:08AM 36.1467 -120.3056 132° Southeast 424 488 37,000  Level Oakland Center
10:09AM 36.0667 -120.1978 133° Southeast 424 488 37,000  Level Oakland Center
10:10AM 35.9878 -120.0892 132° Southeast 423 487 37,000  Level Oakland Center
10:11AM 35.9092 -119.9811 132° Southeast 422 486 37,000  Level Oakland Center
10:13AM 35.8300 -119.8728 132° Southeast 422 486 37,000  Level Oakland Center
10:14AM 35.7481 -119.7647 133° Southeast 427 491 37,000  Level Oakland Center
10:15AM 35.6694 -119.6564 132° Southeast 425 489 37,000  Level Oakland Center
10:16AM 35.6058 -119.5322 122° Southeast 428 493 37,000  Level Oakland Center
10:17AM 35.5550 -119.4000 115° Southeast 428 493 37,000  Level Oakland Center
10:18AM 35.5031 -119.2669 116° Southeast 431 496 37,000  Level Oakland Center
10:19AM 35.4500 -119.1356 116° Southeast 430 495 37,000  Level Oakland Center
10:20AM 35.3978 -119.0033 116° Southeast 430 495 37,000  Level Oakland Center
10:21AM 35.3464 -118.8711 115° Southeast 430 495 37,000  Level Oakland Center
10:22AM 35.2817 -118.7133 117° Southeast 432 497 37,000  Level Oakland Center
10:23AM 35.2294 -118.5831 116° Southeast 429 494 37,000  Level Oakland Center
10:24AM 35.1778 -118.4533 116° Southeast 427 491 37,000  Level Oakland Center
10:25AM 35.1256 -118.3225 116° Southeast 427 491 37,000  Level Oakland Center
10:26AM 35.0508 -118.1431 117° Southeast 426 490 37,000  Level Los Angeles Center
10:27AM 34.9975 -118.0144 117° Southeast 427 491 37,000  Level Los Angeles Center
10:28AM 34.9433 -117.8878 118° Southeast 427 491 37,000  Level Los Angeles Center
10:29AM 34.8806 -117.7336 116° Southeast 429 494 37,000  Level Los Angeles Center
10:30AM 34.8283 -117.6069 117° Southeast 426 490 37,000  Level Los Angeles Center
10:31AM 34.7750 -117.4794 117° Southeast 435 501 37,000  Level Los Angeles Center
10:32AM 34.7222 -117.3531 117° Southeast 426 490 37,000  Level Los Angeles Center
10:33AM 34.6675 -117.2242 117° Southeast 439 505 37,000  Level Los Angeles Center
10:34AM 34.6153 -117.0981 117° Southeast 425 489 37,000  Level Los Angeles Center
10:35AM 34.5497 -116.9425 117° Southeast 435 501 37,000  Level Los Angeles Center
10:36AM 34.4958 -116.8150 117° Southeast 431 496 37,000  Level Los Angeles Center
10:37AM 34.4425 -116.6886 117° Southeast 424 488 37,000  Level Los Angeles Center
10:38AM 34.3869 -116.5600 118° Southeast 431 496 37,000  Level Los Angeles Center
10:40AM 34.3336 -116.4306 116° Southeast 433 498 37,000  Level Los Angeles Center
10:41AM 34.2775 -116.3036 118° Southeast 430 495 37,000  Level Los Angeles Center
10:42AM 34.2225 -116.1736 117° Southeast 433 498 37,000  Level Los Angeles Center
10:43AM 34.1550 -116.0194 118° Southeast 434 499 37,000  Level Los Angeles Center
10:44AM 34.1036 -115.9033 118° Southeast 430 495 37,000  Level Los Angeles Center
10:45AM 34.0464 -115.7725 118° Southeast 437 503 37,000  Level Los Angeles Center
10:46AM 33.9778 -115.6192 118° Southeast 434 499 37,000  Level Los Angeles Center
10:47AM 33.9214 -115.4919 118° Southeast 432 497 37,000  Level Los Angeles Center
10:48AM 33.8653 -115.3639 118° Southeast 431 496 37,000  Level Los Angeles Center
10:49AM 33.8078 -115.2367 119° Southeast 432 497 37,000  Level Los Angeles Center
10:50AM 33.7511 -115.1094 118° Southeast 431 496 37,000  Level Los Angeles Center
10:51AM 33.6942 -114.9808 118° Southeast 433 498 37,000  Level Los Angeles Center
10:52AM 33.6381 -114.8511 117° Southeast 437 503 37,000 -240 Level Los Angeles Center
10:53AM 33.6086 -114.7125 104° East 426 490 36,600 -1,800 Descending Los Angeles Center
10:54AM 33.5683 -114.5447 106° East 433 498 33,400 -3,000 Descending Los Angeles Center
10:55AM 33.5358 -114.4028 105° East 442 509 30,500 -2,640 Descending Los Angeles Center
10:56AM 33.5033 -114.2606 105° East 445 512 28,000 -2,340 Descending Los Angeles Center
10:57AM 33.4778 -114.1397 104° East 445 512 25,900 -1,620 Descending Albuquerque Center
10:58AM 33.4489 -114.0033 104° East 430 495 24,900 -480 Descending Albuquerque Center
10:59AM 33.4167 -113.8447 104° East 412 474 25,000  Climbing Albuquerque Center
11:00AM 33.3900 -113.7142 104° East 407 468 25,000 -600 Level Albuquerque Center
11:01AM 33.3631 -113.5831 104° East 406 467 23,800 -1,680 Descending Albuquerque Center
11:02AM 33.3372 -113.4567 104° East 396 456 21,600 -2,100 Descending Albuquerque Center
11:03AM 33.3122 -113.3358 104° East 381 438 19,500 -2,100 Descending Albuquerque Center
11:04AM 33.2875 -113.2178 104° East 371 427 17,400 -2,040 Descending Albuquerque Center
11:05AM 33.2733 -113.0994 98° East 364 419 15,400 -1,740 Descending Albuquerque Center
11:06AM 33.2764 -112.9886 88° East 341 392 13,900 -1,800 Descending Albuquerque Center
11:07AM 33.2789 -112.8578 89° East 331 381 11,800 -1,620 Descending Albuquerque Center
11:08AM 33.3019 -112.7603 74° East 312 359 10,600 -960 Descending Albuquerque Center
11:09AM 33.3342 -112.6747 66° East 290 334 9,900 -840 Descending Albuquerque Center
11:10AM 33.3683 -112.5881 65° Northeast 275 316 8,900 -900 Descending Albuquerque Center
11:11AM 33.3942 -112.5181 66° East 268 308 8,100 -960 Descending Albuquerque Center
11:12AM 33.4281 -112.4244 67° East 257 296 7,000 -1,140 Descending Albuquerque Center
11:13AM 33.4283 -112.3339 90° East 271 312 5,800 -1,200 Descending Albuquerque Center
11:14AM 33.4289 -112.2486 90° East 261 300 4,600 -1,260 Descending Albuquerque Center
11:15AM 33.4283 -112.1650 90° East 254 292 3,300 -1,080 Descending Albuquerque Center
11:16AM 33.4306 -112.1011 88° East 198 228 2,400 -840 Descending Albuquerque Center
11:18AM 33.4314 -112.0550 89° East 146 168 1,600 -720 Descending Albuquerque Center
11:19AM 33.4289 -112.0086 94° East 133 153 1,000 -600 Descending Albuquerque Center